Time;durP1;ratioP1;P1;durP2;ratioP2;P2;SDS_P1;SDS_P2;PMS_P1;PMS_P2;Temp;Humidity;BMP_temperature;BMP_pressure;BME280_temperature;BME280_humidity;BME280_pressure;Samples;Min_cycle;Max_cycle;Signal;HPM_P1;HPM_P2
2022/06/24 00:02:12;;;;;;;3.97;3.33;;;25.20;38.10;;;27.76;30.54;100792.75;5094939;28;20219;-62
2022/06/24 00:04:40;;;;;;;2.80;2.60;;;25.20;38.30;;;27.71;30.88;100792.00;5095734;28;20192;-61
2022/06/24 00:07:15;;;;;;;3.63;3.33;;;25.20;38.40;;;27.64;31.02;100789.63;5095558;28;20184;-62
2022/06/24 00:09:45;;;;;;;3.70;3.03;;;25.10;38.70;;;27.62;31.29;100785.59;5095433;28;20207;-62
2022/06/24 00:12:15;;;;;;;6.57;3.63;;;25.10;38.80;;;27.58;31.56;100779.13;5094237;28;20213;-62
2022/06/24 00:14:47;;;;;;;2.87;2.67;;;25.00;38.90;;;27.53;31.38;100783.50;5095805;28;20199;-62
2022/06/24 00:17:15;;;;;;;3.43;3.13;;;25.00;39.20;;;27.51;31.76;100790.28;5095553;28;20207;-62
2022/06/24 00:19:57;;;;;;;3.40;3.10;;;24.90;39.30;;;27.43;31.66;100778.19;5093919;28;20296;-62
2022/06/24 00:22:26;;;;;;;3.37;3.07;;;24.90;39.30;;;27.43;31.69;100777.41;5094722;28;20257;-61
2022/06/24 00:25:12;;;;;;;3.43;3.20;;;24.90;39.50;;;27.34;31.80;100773.63;5095115;28;20257;-61
2022/06/24 00:27:42;;;;;;;3.30;3.00;;;24.80;39.60;;;27.34;31.91;100776.34;5095025;28;20196;-61
2022/06/24 00:30:12;;;;;;;3.87;2.80;;;24.70;39.60;;;27.31;31.95;100771.53;5094849;28;20185;-61
2022/06/24 00:32:41;;;;;;;3.47;3.03;;;24.70;39.90;;;27.26;31.55;100768.88;5094524;28;20546;-61
2022/06/24 00:35:14;;;;;;;4.10;3.67;;;24.60;40.00;;;27.22;31.70;100760.50;5094900;28;20177;-61
2022/06/24 00:37:44;;;;;;;4.23;3.10;;;24.60;40.30;;;27.20;32.49;100761.88;5095011;28;20674;-61
2022/06/24 00:40:30;;;;;;;3.60;3.30;;;24.60;40.50;;;27.10;32.58;100764.69;5095344;28;20207;-59
2022/06/24 00:42:59;;;;;;;3.53;3.23;;;24.50;40.50;;;27.09;32.64;100760.34;5094603;28;20203;-62
2022/06/24 00:45:38;;;;;;;3.53;3.30;;;24.50;40.70;;;27.04;32.62;100763.09;5094563;28;20189;-62
2022/06/24 00:48:13;;;;;;;3.40;3.10;;;24.40;40.80;;;26.99;32.25;100761.25;5093414;28;20275;-62
2022/06/24 00:50:46;;;;;;;3.20;2.97;;;24.40;40.90;;;26.94;32.92;100758.56;5093935;28;20184;-62
2022/06/24 00:53:14;;;;;;;4.50;3.20;;;24.30;41.10;;;26.93;32.87;100756.16;5094587;28;20508;-62
2022/06/24 00:55:46;;;;;;;4.20;3.90;;;24.30;41.20;;;26.88;33.05;100748.09;5094548;28;20181;-62
2022/06/24 00:58:16;;;;;;;3.90;3.30;;;24.30;41.20;;;26.86;32.95;100749.16;5094417;28;20207;-62
2022/06/24 01:00:47;;;;;;;3.50;3.30;;;24.20;41.30;;;26.83;32.64;100748.94;5094053;28;20639;-61
2022/06/24 01:03:15;;;;;;;3.90;3.50;;;24.20;41.50;;;26.80;33.31;100744.91;5094642;28;20283;-62
2022/06/24 01:05:43;;;;;;;3.47;3.17;;;24.20;41.50;;;26.77;32.98;100745.47;5094337;28;20216;-61
2022/06/24 01:08:14;;;;;;;5.03;3.23;;;24.20;41.60;;;26.74;32.72;100743.28;5094338;28;20193;-62
2022/06/24 01:10:48;;;;;;;4.43;3.50;;;24.10;41.60;;;26.70;32.75;100734.13;5093627;28;20638;-62
2022/06/24 01:13:15;;;;;;;4.60;3.50;;;24.10;41.70;;;26.71;33.45;100732.25;5093933;28;20185;-62
2022/06/24 01:15:42;;;;;;;4.47;3.27;;;24.10;41.70;;;26.68;32.79;100727.41;5093686;28;20184;-61
2022/06/24 01:18:10;;;;;;;3.53;3.23;;;24.10;41.80;;;26.64;32.92;100721.78;5093865;28;20192;-62
2022/06/24 01:20:37;;;;;;;3.83;3.40;;;24.00;41.70;;;26.62;33.50;100718.53;5093590;28;20208;-62
2022/06/24 01:23:13;;;;;;;4.10;3.40;;;24.00;41.80;;;26.60;33.34;100720.69;5093288;28;20234;-62
2022/06/24 01:25:40;;;;;;;6.43;3.93;;;24.00;42.00;;;26.59;33.24;100716.41;5093877;28;20658;-61
2022/06/24 01:28:08;;;;;;;3.27;3.00;;;24.00;42.10;;;26.58;33.66;100720.19;5093962;28;20193;-61
2022/06/24 01:30:35;;;;;;;4.30;3.77;;;24.00;42.20;;;26.57;33.57;100720.47;5093428;28;20189;-62
2022/06/24 01:33:02;;;;;;;4.63;3.50;;;24.00;42.40;;;26.55;33.18;100715.34;5093765;28;20661;-62
2022/06/24 01:35:30;;;;;;;4.03;3.57;;;23.90;42.40;;;26.53;33.89;100708.63;5093718;28;20195;-62
2022/06/24 01:37:57;;;;;;;4.20;3.47;;;23.90;42.50;;;26.51;33.70;100703.47;5093447;28;20197;-62
2022/06/24 01:40:26;;;;;;;4.53;3.87;;;23.90;42.70;;;26.49;34.15;100702.16;5093070;28;20222;-62
2022/06/24 01:42:53;;;;;;;3.43;3.17;;;23.80;42.80;;;26.48;33.34;100701.34;5093464;28;20574;-62
2022/06/24 01:45:20;;;;;;;4.10;3.80;;;23.80;42.80;;;26.46;34.04;100697.31;5093202;28;20187;-62
2022/06/24 01:47:48;;;;;;;5.07;3.60;;;23.80;42.90;;;26.41;34.14;100689.25;5093530;28;20193;-61
2022/06/24 01:50:15;;;;;;;4.13;3.43;;;23.70;42.90;;;26.38;33.61;100696.03;5093541;28;20180;-61
2022/06/24 01:52:43;;;;;;;4.17;3.77;;;23.70;43.10;;;26.34;33.60;100684.16;5092409;28;20247;-61
2022/06/24 01:55:10;;;;;;;3.87;3.57;;;23.70;43.20;;;26.32;34.20;100675.53;5094135;28;20184;-62
2022/06/24 01:57:39;;;;;;;4.87;3.87;;;23.60;43.30;;;26.29;34.29;100681.50;5093211;28;20199;-62
2022/06/24 02:00:08;;;;;;;3.40;3.20;;;23.60;43.40;;;26.27;33.81;100669.38;5093264;28;20716;-62
2022/06/24 02:02:36;;;;;;;3.53;3.23;;;23.60;43.50;;;26.24;33.87;100668.03;5092890;28;20219;-62
2022/06/24 02:05:09;;;;;;;3.93;3.20;;;23.60;43.60;;;26.24;34.62;100667.22;5093304;28;20225;-61
2022/06/24 02:07:37;;;;;;;3.77;3.53;;;23.50;43.60;;;26.22;34.52;100664.00;5093426;28;20193;-62
2022/06/24 02:15:50;;;;;;;4.10;3.80;;;23.50;43.80;;;26.09;34.25;100649.19;5093361;28;20189;-62
2022/06/24 02:18:17;;;;;;;4.40;3.80;;;23.40;43.90;;;26.04;34.52;100644.63;5092999;28;20269;-63
2022/06/24 02:20:45;;;;;;;3.97;3.63;;;23.40;44.00;;;26.01;34.45;100641.69;5092738;28;20557;-62
2022/06/24 02:23:12;;;;;;;3.97;3.57;;;23.30;44.10;;;25.98;35.17;100645.72;5093032;28;20557;-63
2022/06/24 02:25:40;;;;;;;4.57;3.77;;;23.30;44.20;;;25.96;35.12;100637.13;5093209;28;20188;-63
2022/06/24 02:28:08;;;;;;;4.10;3.80;;;23.30;44.40;;;25.95;34.73;100642.81;5092957;28;20503;-61
2022/06/24 02:30:37;;;;;;;4.03;3.53;;;23.30;44.50;;;25.93;35.06;100640.41;5092392;28;20192;-63
2022/06/24 02:33:05;;;;;;;3.00;2.80;;;23.20;44.50;;;25.89;35.15;100633.91;5092572;28;20191;-61
2022/06/24 02:35:32;;;;;;;4.03;3.63;;;23.20;44.60;;;25.88;34.73;100642.31;5095495;28;20209;-61
2022/06/24 02:38:00;;;;;;;4.00;3.67;;;23.20;44.90;;;25.86;35.23;100645.28;5097022;28;20643;-63
2022/06/24 02:40:46;;;;;;;4.27;3.97;;;23.20;44.90;;;25.84;35.26;100641.25;5096661;28;20204;-62
2022/06/24 02:43:19;;;;;;;3.50;3.20;;;23.10;44.90;;;25.78;34.98;100637.75;5096967;28;20643;-63
2022/06/24 02:45:49;;;;;;;4.00;3.70;;;23.10;45.10;;;25.77;35.60;100632.66;5096516;28;20199;-62
2022/06/24 02:48:19;;;;;;;5.27;3.60;;;23.10;45.10;;;25.75;35.32;100630.22;5096847;28;20267;-63
2022/06/24 02:50:49;;;;;;;4.30;3.23;;;23.10;45.20;;;25.74;35.09;100619.72;5095900;28;20505;-63
2022/06/24 02:53:18;;;;;;;3.73;3.43;;;23.00;45.20;;;25.73;35.51;100618.09;5096777;28;20200;-63
2022/06/24 02:55:49;;;;;;;5.20;4.73;;;23.00;45.30;;;25.70;35.73;100619.44;5096580;28;20199;-63
2022/06/24 02:58:18;;;;;;;4.00;3.60;;;23.00;46.00;;;25.68;35.70;100616.22;5096800;28;20651;-62
2022/06/24 03:00:46;;;;;;;4.13;3.83;;;23.00;45.40;;;25.67;35.57;100613.81;5095802;28;20278;-62
2022/06/24 03:03:17;;;;;;;3.47;3.27;;;23.00;45.50;;;25.65;35.33;100610.59;5096564;28;20185;-63
2022/06/24 03:05:45;;;;;;;4.23;3.60;;;22.90;45.50;;;25.64;35.42;100606.28;5096121;28;20193;-63
2022/06/24 03:08:15;;;;;;;5.40;4.90;;;22.90;45.60;;;25.61;35.32;100604.13;5096587;28;20753;-61
2022/06/24 03:10:44;;;;;;;4.33;3.60;;;22.90;45.60;;;25.60;35.36;100597.94;5096159;28;20268;-62
2022/06/24 03:13:12;;;;;;;3.53;3.20;;;22.90;45.80;;;25.60;35.44;100597.13;5096169;28;20196;-62
2022/06/24 03:15:43;;;;;;;3.70;3.40;;;22.90;45.90;;;25.59;35.67;100595.50;5096330;28;20189;-62
2022/06/24 03:18:11;;;;;;;3.57;3.33;;;22.90;46.00;;;25.61;35.96;100593.34;5095983;28;20268;-62
2022/06/24 03:20:39;;;;;;;4.10;3.30;;;22.90;46.00;;;25.63;35.62;100588.47;5095658;28;20204;-62
2022/06/24 03:23:12;;;;;;;3.60;3.30;;;22.80;45.90;;;25.64;35.97;100579.31;5095197;28;20541;-62
2022/06/24 03:25:40;;;;;;;3.80;3.50;;;22.80;46.00;;;25.65;35.74;100578.25;5095897;28;20287;-62
2022/06/24 03:28:08;;;;;;;3.60;3.30;;;22.80;45.90;;;25.67;35.33;100570.66;5096096;28;20193;-62
2022/06/24 03:30:35;;;;;;;4.00;3.30;;;22.90;46.20;;;25.67;35.39;100576.88;5095522;28;20195;-62
2022/06/24 03:33:05;;;;;;;4.67;3.23;;;22.90;46.20;;;25.67;35.60;100570.66;5095633;28;20254;-62
2022/06/24 03:35:33;;;;;;;3.60;3.23;;;22.90;46.10;;;25.69;35.91;100568.50;5095811;28;20188;-63
2022/06/24 03:38:01;;;;;;;3.47;3.27;;;22.90;46.80;;;25.71;36.16;100560.94;5095679;28;20254;-63
2022/06/24 03:40:28;;;;;;;4.07;3.37;;;22.90;46.20;;;25.73;35.58;100564.16;5095347;28;20545;-62
2022/06/24 03:42:56;;;;;;;3.40;3.07;;;23.00;46.20;;;25.76;35.96;100558.22;5095879;28;20697;-62
2022/06/24 03:45:23;;;;;;;3.57;3.33;;;23.00;46.10;;;25.78;35.32;100550.63;5094911;28;20267;-63
2022/06/24 03:47:51;;;;;;;3.93;3.00;;;23.00;46.20;;;25.81;36.06;100555.47;5095523;28;20192;-63
2022/06/24 03:50:20;;;;;;;3.20;3.00;;;23.00;46.10;;;25.84;35.92;100549.53;5095081;28;20197;-62
2022/06/24 03:52:47;;;;;;;4.60;4.20;;;23.10;46.10;;;25.87;35.90;100551.66;5095548;28;20216;-63
2022/06/24 03:55:16;;;;;;;5.57;3.83;;;23.10;46.10;;;25.91;35.95;100550.03;5095446;28;20635;-62
2022/06/24 03:57:43;;;;;;;3.23;3.03;;;23.10;46.10;;;25.95;36.00;100545.69;5094278;28;20512;-62
2022/06/24 04:00:13;;;;;;;3.90;3.60;;;23.20;46.10;;;25.96;36.05;100542.69;5095415;28;20550;-63
2022/06/24 04:02:40;;;;;;;3.73;3.43;;;23.20;46.10;;;25.97;35.39;100543.50;5095312;28;20219;-62
2022/06/24 04:05:14;;;;;;;3.43;3.10;;;23.20;46.00;;;26.00;36.00;100537.56;5095192;28;20495;-61
2022/06/24 04:07:43;;;;;;;3.63;3.27;;;23.30;46.20;;;26.02;35.64;100528.09;5095217;28;20271;-61
2022/06/24 04:10:10;;;;;;;3.90;3.40;;;23.30;46.20;;;26.05;35.88;100530.19;5095029;28;20196;-63
2022/06/24 04:12:38;;;;;;;3.60;3.30;;;23.30;46.10;;;26.06;35.67;100525.63;5094633;28;20738;-63
2022/06/24 04:15:19;;;;;;;3.13;2.83;;;23.30;46.00;;;26.07;35.34;100533.44;5095163;28;20603;-62
2022/06/24 04:17:49;;;;;;;3.90;3.60;;;23.40;46.10;;;26.08;36.04;100526.13;5094953;28;20197;-62
2022/06/24 04:20:18;;;;;;;3.43;3.13;;;23.40;46.30;;;26.09;35.68;100530.47;5095103;28;20243;-62
2022/06/24 04:22:48;;;;;;;3.27;3.07;;;23.40;46.20;;;26.11;36.21;100539.09;5094329;28;20635;-61
2022/06/24 04:25:16;;;;;;;3.63;3.27;;;23.40;46.30;;;26.16;35.59;100555.25;5094839;28;20568;-62
2022/06/24 04:27:45;;;;;;;3.97;3.60;;;23.40;46.20;;;26.21;35.26;100555.22;5094883;28;20195;-62
2022/06/24 04:30:13;;;;;;;4.70;3.77;;;23.40;46.30;;;26.27;35.95;100554.09;5094785;28;20215;-62
2022/06/24 04:32:40;;;;;;;4.03;3.73;;;23.50;46.30;;;26.33;35.94;100542.16;5094358;28;20246;-63
2022/06/24 04:35:09;;;;;;;3.57;3.37;;;23.50;46.30;;;26.41;35.57;100551.56;5094481;28;20190;-62
2022/06/24 04:37:37;;;;;;;3.90;3.50;;;23.60;46.40;;;26.47;35.65;100553.91;5094268;28;20181;-62
2022/06/24 04:40:09;;;;;;;5.37;3.20;;;23.60;46.20;;;26.50;35.73;100547.16;5094535;28;20267;-63
2022/06/24 04:42:37;;;;;;;3.50;3.20;;;23.70;46.20;;;26.51;35.80;100548.75;5093948;28;20212;-63
2022/06/24 04:45:07;;;;;;;3.47;2.87;;;23.70;46.20;;;26.51;35.49;100549.56;5093840;28;20184;-62
2022/06/24 04:47:34;;;;;;;3.40;3.10;;;23.70;45.90;;;26.42;35.52;100550.44;5094182;28;20191;-63
2022/06/24 04:50:02;;;;;;;4.43;3.53;;;23.80;46.40;;;26.39;35.82;100546.41;5094078;28;20562;-62
2022/06/24 04:52:30;;;;;;;8.50;3.60;;;23.80;46.30;;;26.32;35.78;100545.94;5093757;28;20205;-61
2022/06/24 04:55:00;;;;;;;3.50;3.20;;;23.80;46.30;;;26.33;36.62;100542.16;5094255;28;20200;-62
2022/06/24 04:57:29;;;;;;;3.50;3.20;;;23.90;46.50;;;26.29;36.17;100551.13;5092152;28;20298;-62
2022/06/24 04:59:56;;;;;;;3.93;3.53;;;23.90;46.60;;;26.27;36.44;100542.50;5093857;28;20655;-62
2022/06/24 05:02:24;;;;;;;4.73;3.57;;;23.90;46.60;;;26.31;36.22;100544.34;5093126;28;20208;-62
2022/06/24 05:04:51;;;;;;;4.10;3.23;;;23.90;46.60;;;26.31;36.92;100551.63;5094066;28;20192;-63
2022/06/24 05:07:19;;;;;;;5.27;3.73;;;23.90;46.80;;;26.34;36.25;100551.88;5092359;28;20210;-63
2022/06/24 05:09:46;;;;;;;5.57;3.50;;;23.90;47.50;;;26.40;36.68;100539.94;5093826;28;20192;-62
2022/06/24 05:12:14;;;;;;;4.73;3.80;;;23.90;46.90;;;26.43;36.17;100541.28;5093258;28;20205;-62
2022/06/24 05:14:43;;;;;;;6.33;4.50;;;24.00;46.80;;;26.46;36.76;100541.50;5093606;28;20192;-63
2022/06/24 05:17:14;;;;;;;3.67;3.37;;;24.00;47.00;;;26.55;36.06;100544.41;5093732;28;20526;-62
2022/06/24 05:19:42;;;;;;;3.90;3.60;;;24.10;47.10;;;26.64;36.49;100543.50;5093356;28;20651;-62
2022/06/24 05:22:09;;;;;;;3.60;3.30;;;24.10;46.90;;;26.74;36.42;100548.78;5092932;28;20693;-62
2022/06/24 05:24:37;;;;;;;4.60;4.00;;;24.20;46.90;;;26.82;36.36;100540.09;5093591;28;20646;-62
2022/06/24 05:27:05;;;;;;;3.63;3.33;;;24.20;47.00;;;26.92;35.88;100535.66;5072864;28;20195;-62
2022/06/24 05:29:32;;;;;;;4.13;3.67;;;24.30;47.00;;;26.99;35.60;100528.00;5073313;28;20189;-67
2022/06/24 05:32:01;;;;;;;3.57;3.23;;;24.30;46.90;;;27.01;35.76;100531.22;5073080;28;20205;-61
2022/06/24 05:34:29;;;;;;;3.67;3.23;;;24.40;46.90;;;27.05;36.18;100532.28;5072225;28;20322;-62
2022/06/24 05:36:56;;;;;;;4.97;3.73;;;24.40;46.50;;;27.10;35.48;100530.31;5072772;28;20196;-62
2022/06/24 05:39:23;;;;;;;4.37;4.00;;;24.50;46.60;;;27.11;36.16;100531.94;5072780;28;20566;-61
2022/06/24 05:41:51;;;;;;;3.87;3.53;;;24.60;46.50;;;27.15;36.06;100524.03;5082438;28;20318;-62
2022/06/24 05:44:18;;;;;;;5.67;3.90;;;24.60;46.50;;;27.17;35.58;100519.94;5093112;28;20195;-60
2022/06/24 05:46:46;;;;;;;4.03;3.63;;;24.70;46.30;;;27.22;35.83;100527.22;5093601;28;20193;-61
2022/06/24 05:49:14;;;;;;;4.00;3.43;;;24.70;46.30;;;27.24;35.73;100522.31;5093509;28;20546;-63
2022/06/24 05:51:42;;;;;;;6.63;3.67;;;24.70;46.00;;;27.34;35.04;100519.47;5092460;28;20217;-61
2022/06/24 05:56:55;;;;;;;4.53;3.83;;;24.90;45.80;;;27.54;35.24;100519.22;5093121;28;20200;-62
2022/06/24 05:59:23;;;;;;;3.80;3.47;;;24.90;45.70;;;27.63;35.03;100514.75;5093200;28;20196;-60
2022/06/24 06:01:50;;;;;;;3.93;3.43;;;25.00;45.70;;;27.68;34.99;100508.47;5092749;28;20216;-62
2022/06/24 06:04:19;;;;;;;4.10;3.80;;;25.10;45.20;;;27.72;34.78;100513.00;5093247;28;20302;-62
2022/06/24 06:06:47;;;;;;;7.47;3.67;;;25.20;45.20;;;27.78;34.73;100517.25;5093226;28;20201;-61
2022/06/24 06:09:15;;;;;;;5.93;3.70;;;25.20;45.20;;;27.85;34.87;100520.38;5092850;28;20265;-61
2022/06/24 06:11:42;;;;;;;4.87;4.17;;;25.30;45.10;;;27.89;34.25;100521.41;5092822;28;20357;-64
2022/06/24 06:14:10;;;;;;;4.93;3.73;;;25.40;44.80;;;27.88;34.41;100514.41;5094032;28;20215;-61
2022/06/24 06:16:37;;;;;;;3.93;3.60;;;25.40;44.50;;;27.88;34.25;100514.41;5092542;28;20192;-62
2022/06/24 06:19:07;;;;;;;4.43;3.97;;;25.40;44.30;;;27.90;34.34;100516.81;5094156;28;20665;-61
2022/06/24 06:21:37;;;;;;;3.80;3.50;;;25.50;44.50;;;27.95;34.37;100520.25;5093842;28;20650;-63
2022/06/24 06:24:05;;;;;;;3.70;3.30;;;25.50;44.30;;;27.92;34.34;100514.59;5093803;28;20192;-62
2022/06/24 06:26:33;;;;;;;4.13;3.40;;;25.50;44.20;;;27.86;34.27;100515.78;5094240;28;20651;-63
2022/06/24 06:29:01;;;;;;;4.17;3.57;;;25.50;44.10;;;27.92;34.19;100509.19;5106502;27;20552;-62
2022/06/24 06:31:29;;;;;;;4.17;3.47;;;25.50;44.10;;;27.98;34.46;100514.22;5098683;28;20616;-63
2022/06/24 06:33:56;;;;;;;3.67;3.30;;;25.50;44.20;;;28.02;34.31;100503.66;5093399;28;20659;-62
2022/06/24 06:36:24;;;;;;;4.10;3.53;;;25.60;44.30;;;28.11;34.22;100508.09;5073482;28;20185;-62
2022/06/24 06:38:52;;;;;;;4.00;3.70;;;25.60;44.40;;;28.29;34.23;100502.94;5079123;28;20189;-62
2022/06/24 06:41:20;;;;;;;4.00;3.60;;;25.70;44.50;;;28.47;34.15;100516.41;5092852;28;20512;-62
2022/06/24 06:43:47;;;;;;;4.00;3.60;;;25.80;44.50;;;28.61;34.00;100516.44;5095378;27;20212;-63
2022/06/24 06:46:15;;;;;;;4.13;3.83;;;25.90;44.60;;;28.75;34.00;100514.56;5104381;28;20319;-63
2022/06/24 06:48:42;;;;;;;4.63;3.67;;;26.00;44.70;;;28.92;33.77;100520.19;5111150;28;20611;-63
2022/06/24 06:51:10;;;;;;;4.17;3.87;;;26.10;44.90;;;29.03;34.43;100518.88;5092907;28;20216;-62
2022/06/24 06:53:37;;;;;;;4.23;3.83;;;26.20;45.30;;;29.12;33.95;100522.47;5091776;27;20248;-62
2022/06/24 06:56:06;;;;;;;4.47;4.07;;;26.30;45.30;;;29.16;34.34;100512.66;5111820;28;20829;-63
2022/06/24 06:58:33;;;;;;;6.03;4.10;;;26.40;45.40;;;29.08;34.67;100517.97;5111173;28;20196;-62
2022/06/24 07:01:01;;;;;;;5.03;3.93;;;26.40;45.70;;;28.98;35.21;100515.47;5102202;28;20275;-62
2022/06/24 07:03:29;;;;;;;3.87;3.47;;;26.40;45.90;;;28.88;35.60;100513.75;5086716;27;20205;-62
2022/06/24 07:05:56;;;;;;;4.13;3.53;;;26.40;46.40;;;28.92;35.73;100514.75;5092050;28;20316;-63
2022/06/24 07:08:23;;;;;;;4.40;3.80;;;26.50;46.60;;;28.93;36.30;100507.44;5091066;28;20188;-62
2022/06/24 07:10:51;;;;;;;4.00;3.70;;;26.50;47.50;;;28.91;36.87;100510.44;5090687;28;20216;-63
2022/06/24 07:13:20;;;;;;;4.87;3.73;;;26.50;48.10;;;28.96;36.79;100515.75;5092111;28;20196;-62
2022/06/24 07:15:47;;;;;;;4.73;3.80;;;26.50;48.10;;;29.09;36.54;100514.97;5108452;28;20184;-63
2022/06/24 07:18:15;;;;;;;7.50;3.80;;;26.60;48.00;;;29.21;36.54;100509.84;5092830;28;20271;-61
2022/06/24 07:20:43;;;;;;;5.03;4.00;;;26.70;48.30;;;29.33;36.66;100512.84;5085573;28;20683;-63
2022/06/24 07:23:10;;;;;;;5.00;3.70;;;26.70;48.30;;;29.45;36.85;100504.19;5094575;28;20295;-62
2022/06/24 07:25:38;;;;;;;4.87;4.23;;;26.80;48.60;;;29.35;37.70;100513.34;5093075;28;20188;-62
2022/06/24 07:28:06;;;;;;;6.07;3.93;;;26.80;49.60;;;29.31;37.95;100509.63;5095523;28;20196;-62
2022/06/24 07:30:39;;;;;;;12.83;4.50;;;26.90;50.00;;;29.29;38.18;100506.41;5097268;28;20187;-61
2022/06/24 07:33:07;;;;;;;5.30;4.10;;;26.90;50.00;;;29.34;38.27;100509.03;5094336;28;20688;-63
2022/06/24 07:35:35;;;;;;;6.30;4.53;;;27.00;50.10;;;29.45;38.63;100498.75;5095142;28;20541;-63
2022/06/24 07:38:19;;;;;;;5.83;4.27;;;27.10;50.20;;;29.47;38.60;100491.13;5109733;27;20298;-61
2022/06/24 07:40:47;;;;;;;4.57;3.93;;;27.10;50.20;;;29.58;38.32;100503.31;5101170;28;20207;-64
2022/06/24 07:43:15;;;;;;;4.77;4.30;;;27.20;50.20;;;29.53;38.87;100495.31;5096070;28;20274;-60
2022/06/24 07:45:44;;;;;;;5.27;4.87;;;27.20;50.60;;;29.66;38.24;100497.19;5084969;28;20218;-61
2022/06/24 07:48:13;;;;;;;6.93;4.40;;;27.30;50.30;;;29.75;38.79;100491.81;5093168;27;20197;-62
2022/06/24 07:50:41;;;;;;;6.67;4.97;;;27.30;50.80;;;29.77;39.35;100489.63;5083133;28;20211;-63
2022/06/24 07:53:12;;;;;;;7.37;5.03;;;27.40;51.30;;;29.78;39.34;100485.81;5087529;28;20196;-63
2022/06/24 07:58:26;;;;;;;7.53;4.73;;;27.50;52.00;;;29.84;39.93;100484.56;5093909;28;20284;-63
2022/06/24 08:00:55;;;;;;;7.37;5.47;;;27.50;52.40;;;29.99;40.16;100476.06;5089785;28;20212;-63
2022/06/24 08:03:23;;;;;;;7.33;5.20;;;27.60;52.50;;;30.09;39.83;100478.53;5090480;28;20200;-62
2022/06/24 08:05:50;;;;;;;7.07;5.87;;;27.70;52.40;;;30.17;39.84;100478.56;5091557;27;20233;-61
2022/06/24 08:08:22;;;;;;;5.80;5.07;;;27.70;52.80;;;30.19;39.87;100475.53;5096620;28;20203;-65
2022/06/24 08:10:49;;;;;;;6.97;5.97;;;27.80;52.90;;;30.23;40.20;100479.25;5084552;28;20236;-63
2022/06/24 08:13:17;;;;;;;11.40;6.27;;;27.80;53.20;;;30.11;41.14;100479.00;5090724;28;20198;-62
2022/06/24 08:15:44;;;;;;;6.93;5.50;;;27.80;53.70;;;30.22;40.50;100480.34;5086733;27;20236;-61
2022/06/24 08:18:13;;;;;;;9.17;7.13;;;27.90;53.90;;;30.33;40.91;100473.56;5091103;28;20199;-59
2022/06/24 08:20:41;;;;;;;6.97;6.33;;;28.00;54.20;;;30.81;40.78;100470.88;5084850;28;20189;-61
2022/06/24 08:23:09;;;;;;;6.73;6.03;;;28.10;54.40;;;31.58;39.25;100471.03;5088681;28;20220;-63
2022/06/24 08:25:36;;;;;;;8.00;6.10;;;28.30;54.20;;;32.54;37.22;100468.66;5091029;28;20204;-64
2022/06/24 08:28:04;;;;;;;10.67;6.80;;;28.70;53.30;;;33.50;35.97;100462.28;5089862;28;20283;-61
2022/06/24 08:30:34;;;;;;;9.97;7.23;;;29.30;52.40;;;34.00;34.76;100459.41;5090444;28;20735;-59
2022/06/24 08:33:02;;;;;;;7.27;6.57;;;29.80;50.80;;;34.39;34.06;100464.31;5090181;28;20193;-61
2022/06/24 08:35:31;;;;;;;8.30;6.60;;;30.30;49.60;;;34.81;33.12;100472.31;5089599;28;20285;-63
2022/06/24 08:37:59;;;;;;;6.53;5.90;;;30.70;48.60;;;35.33;32.95;100462.22;5088649;28;20234;-62
2022/06/24 08:40:34;;;;;;;7.73;6.77;;;31.00;47.60;;;36.03;31.46;100458.00;5089268;28;20216;-60
2022/06/24 08:43:24;;;;;;;7.87;7.07;;;31.40;46.70;;;36.72;30.43;100456.59;5089618;28;20236;-60
2022/06/24 08:46:10;;;;;;;7.53;5.78;;;32.00;45.30;;;37.74;29.44;100454.16;5090495;27;20211;-60
2022/06/24 08:49:07;;;;;;;8.48;7.60;;;32.60;44.70;;;38.73;27.83;100461.44;5064986;28;20204;-62
2022/06/24 08:51:41;;;;;;;7.97;6.43;;;33.10;43.20;;;39.27;26.88;100457.50;5071323;28;20284;-60
2022/06/24 08:54:27;;;;;;;9.38;5.78;;;33.70;41.80;;;39.39;26.67;100460.03;5069549;28;20287;-60
2022/06/24 08:57:13;;;;;;;7.03;6.32;;;34.20;40.40;;;39.42;26.35;100460.03;5072870;28;20196;-63
2022/06/24 08:59:45;;;;;;;5.78;5.22;;;34.50;39.30;;;39.68;26.27;100456.44;5090183;28;20196;-62
2022/06/24 09:02:14;;;;;;;6.00;5.13;;;34.70;38.80;;;40.04;26.16;100452.09;5086630;28;20247;-61
2022/06/24 09:04:45;;;;;;;6.68;5.97;;;34.90;38.80;;;39.92;25.47;100456.72;5089933;28;20287;-61
2022/06/24 09:07:26;;;;;;;6.60;5.93;;;35.00;37.80;;;39.75;25.31;100454.56;5089206;28;20199;-62
2022/06/24 09:10:10;;;;;;;6.65;6.00;;;35.10;37.00;;;39.86;25.17;100458.22;5090579;28;20196;-62
2022/06/24 09:12:44;;;;;;;11.68;6.28;;;35.20;36.90;;;40.42;24.89;100452.44;5069199;28;20208;-61
2022/06/24 09:15:13;;;;;;;6.80;6.15;;;35.40;36.80;;;40.60;24.91;100451.81;5091046;28;20271;-63
2022/06/24 09:17:42;;;;;;;11.77;6.68;;;35.60;36.60;;;40.31;25.12;100450.78;5088271;28;20204;-61
2022/06/24 09:20:12;;;;;;;7.28;6.63;;;35.70;36.10;;;39.92;24.86;100449.63;5089038;27;20216;-61
2022/06/24 09:23:05;;;;;;;6.72;5.82;;;35.60;35.60;;;39.20;25.24;100447.19;5089371;28;20216;-63
2022/06/24 09:25:45;;;;;;;8.85;6.43;;;35.40;35.10;;;38.32;26.26;100443.06;5082897;28;20184;-63
2022/06/24 09:28:21;;;;;;;6.72;5.97;;;35.00;35.80;;;37.58;27.35;100445.22;5090149;28;20653;-64
2022/06/24 09:30:49;;;;;;;6.18;5.50;;;34.60;36.70;;;37.15;28.08;100442.72;5085009;28;20203;-63
2022/06/24 09:33:21;;;;;;;8.45;7.40;;;34.10;37.70;;;36.48;30.04;100446.63;5084635;28;20773;-62
2022/06/24 09:36:06;;;;;;;8.88;6.93;;;33.80;39.20;;;35.91;30.08;100442.41;5084561;28;20237;-62
2022/06/24 09:38:54;;;;;;;8.45;5.78;;;33.40;39.90;;;35.56;30.94;100460.59;5086569;28;20200;-63
2022/06/24 09:41:22;;;;;;;7.80;7.10;;;33.10;40.80;;;35.44;31.37;100463.34;5118092;27;20231;-64
2022/06/24 09:43:51;;;;;;;8.10;7.05;;;32.80;41.10;;;35.32;31.45;100466.13;5081313;28;20221;-62
2022/06/24 09:46:21;;;;;;;8.70;6.37;;;32.60;41.60;;;35.25;31.07;100458.50;5087585;28;20671;-61
2022/06/24 09:48:51;;;;;;;5.53;5.07;;;32.40;41.90;;;35.23;31.57;100462.75;5081778;27;20291;-62
2022/06/24 09:51:19;;;;;;;8.50;6.40;;;32.20;42.30;;;35.20;31.99;100466.16;5087225;28;20228;-61
2022/06/24 09:53:51;;;;;;;5.77;5.27;;;32.10;43.00;;;35.05;31.75;100466.88;5087098;28;20222;-61
2022/06/24 09:56:21;;;;;;;5.32;4.82;;;32.10;42.40;;;34.87;31.59;100465.50;5089941;28;20623;-60
2022/06/24 10:01:40;;;;;;;6.77;6.10;;;31.80;43.50;;;34.24;33.10;100470.44;5086866;28;20214;-60
2022/06/24 10:04:14;;;;;;;7.93;7.13;;;31.60;44.20;;;34.06;33.35;100469.06;5085843;28;20223;-60
2022/06/24 10:06:45;;;;;;;6.30;5.90;;;31.40;44.90;;;33.99;33.59;100474.25;5087815;28;20188;-61
2022/06/24 10:09:18;;;;;;;9.00;8.10;;;31.30;45.30;;;33.56;35.17;100479.31;5091499;28;20183;-61
2022/06/24 10:11:50;;;;;;;8.03;6.60;;;31.00;46.60;;;33.25;35.64;100483.22;5084524;28;21051;-61
2022/06/24 10:14:19;;;;;;;6.50;6.00;;;30.90;47.00;;;33.04;35.01;100482.38;5082915;27;20224;-60
2022/06/24 10:16:50;;;;;;;6.07;5.27;;;30.70;46.80;;;32.87;35.51;100487.91;5088600;28;20227;-61
2022/06/24 10:19:24;;;;;;;8.93;5.53;;;30.50;46.80;;;32.68;35.25;100491.06;5087625;28;20715;-60
2022/06/24 10:21:52;;;;;;;6.33;5.03;;;30.30;47.10;;;32.46;35.57;100483.09;5085363;28;20212;-62
2022/06/24 10:24:21;;;;;;;5.23;4.70;;;30.20;47.00;;;32.26;35.75;100483.00;5090211;28;20231;-60
2022/06/24 10:26:51;;;;;;;5.17;4.67;;;29.90;47.00;;;32.15;36.42;100495.34;5088151;28;20200;-61
2022/06/24 10:29:28;;;;;;;5.40;4.37;;;29.80;47.40;;;32.02;35.67;100489.00;5089104;27;20254;-61
2022/06/24 10:32:05;;;;;;;5.73;5.03;;;29.70;47.50;;;31.83;36.51;100483.84;5087851;28;20712;-61
2022/06/24 10:34:42;;;;;;;5.57;4.70;;;29.50;47.90;;;31.80;36.71;100487.22;5091389;28;20223;-62
2022/06/24 10:37:29;;;;;;;6.10;4.43;;;29.40;48.20;;;31.75;37.25;100490.09;5087955;28;20618;-63
2022/06/24 10:40:00;;;;;;;6.13;4.33;;;29.30;48.90;;;31.93;36.32;100497.13;5088665;28;20189;-62